Create Custom Reports and Graphics: Custom Report

Latest Observations

MWA Stations

15 Minute Data | America/Los_Angeles
as of 9/4/26 3:13 AM PDT
Station Date Time Temp (°F) RH (%) Dew Pt (°F) Wind Dir (°) Wind Spd (mph) Wind Gust (mph) Solar Rad (W/m2) Pressure (mb) Daily Min Temp (°F) Daily Max Temp (°F) Daily Max Wind (mph) Daily Rain (In) Yest MinT (°F) Yest MaxT (°F) Yest MaxGst (mph) Yest Precip (In) MinBV Day (V)
MWA Office 9/4/26 0300 65.7   4.4 51   6 47.1   7.3 SW | 234 4.7   3.9 9.2   5.3 0   0 1,010.7   3.0 65.3   4.8 66.5   1.6 13.6   3.9 0.00 55.7 85.6 24.6 0.00 12.5   0.0
MWA OPS 9/4/26 0300 67.4   3.2 44   3 44.9   4.5 WSW | 240 8.8   3.6 15.3   5.9 0   0 1,009.6   3.0 65.3   3.8 67.6   0.1 16.2   3.9 0.00 53.4 83.7 26.7 0.00 12.9   0.0
LV-PS 9/4/26 0300 62.9   2.2 50   17 43.9   12.4 SE | 127 2.8   1.6 4.8   1.5 0   0 1,009.8   2.9 61.9   1.5 65.8   3.1 5.7   0.7 0.00 57.0 90.3 27.8 0.00 12.8   0.1
JV-PS 9/4/26 0300 64.1   1.9 46   10 43.1   8.2 SE | 136 2.3   1.5 3.1   1.5 0   0 1,009.6   2.7 60.7   1.1 67.4   1.2 5.5   3.3 0.00 56.6 89.7 20.0 0.00 12.9   0.0
BDVWA 9/4/26 0300 61.2   0.4 40   18 37.0   13.8 W | 266 5.1   0.6 7.2   0.4 0   0 1,010.0   1.9 60.7   0.2 66.1   2.7 7.2   0.7 0.00 58.4 86.7 21.5 0.00 12.9   0.0
Newberry Springs 9/4/26 0300 74.5   1.2 36   9 45.6   8.3 N | 354 7.3   2.5 11.8   6.6 0   0 1,008.0   2.2 72.7   3.2 77.9   4.3 21.0   2.6 0.00 66.9 94.8 26.7 0.00 13.0   0.0
Pinon Hills 9/4/26 0300 64.2   3.9 31   1 32.8   2.3 S | 187 5.3   1.1 12.5   4.8 0   0 1,008.7   3.5 60.2   3.2 65.5   4.3 12.5   3.1 0.00 52.6 81.7 21.7 0.00 12.9   0.0
Helendale 9/4/26 0300 59.9   4.4 63   23 47.5   7.5 WNW | 297 1.4   7.2 3.1   10.1 0   0 1,011.2   1.0 59.0   4.9 65.8   0.6 10.3   3.5 0.00 59.9 91.6 24.6 0.00 12.8   0.0
Lenwood 9/4/26 0300 64.8   0.5 54   16 47.6   9.8 SW | 226 8.1   7.5 12.7   9.6 0   0 1,010.1   2.3 64.3   0.0 68.1   0.5 13.4   2.8 0.00 63.0 92.8 28.9 0.00 12.4   0.5
Oak Hills 9/4/26 0300 54.8   0.3 72   4 46.0   1.2 SSW | 212 7.3   0.4 12.7   4.4 0   0 1,012.4   2.1 54.8   0.2 57.3   0.7 17.8   2.6 0.00 53.4 75.1 22.8 0.00 13.0   0.0
Pipes Wash Canyon 9/4/26 0300 59.6   1.2 30   13 28.1   12.0 WNW | 292 3.4   0.4 6.4   1.1 0   0 1,009.7   1.6 59.5   0.9 63.4   0.5 8.8   0.9 0.00 55.1 83.9 17.1 0.00 12.9   0.0
Max     74.5 72 47.6 - 8.8 15.3 0 1,012.4 72.7 77.9 21.0 0.00 66.9 94.8 28.9 0.00 13.0
Avg     63.6 47 42.1 - 5.1 9.0 0 1,010.0 - - - - - - - - -
Min     54.8 30 28.1 - 1.4 3.1 0 1,008.0 54.8 57.3 5.5 0.00 52.6 75.1 17.1 0.00 12.4

Latest Observations

Map

15 Minute Data

Rainfall & ETo

MWA Stations

15 Minute Data | America/Los_Angeles
as of 9/4/26 3:13 AM PDT
Station Date Time Latest Rain (In) Daily Rain (In) Yest Precip (In) Month Precip (In) Season Precip (In) Daily ETo (in) Yest ETo (In) 7 Day ETo (in)
MWA Office 9/4/26 0300 0.00 0.00 0.00 0.00 0.00 0.001 0.26 1.91
MWA OPS 9/4/26 0300 0.00 0.00 0.00 0.00 0.00 0.001 0.28 2.11
LV-PS 9/4/26 0300 0.00 0.00 0.00 0.00 0.34 0.000 0.25 1.99
JV-PS 9/4/26 0300 0.00 0.00 0.00 0.00 0.06 0.000 0.24 1.96
BDVWA 9/4/26 0300 0.00 0.00 0.00 0.00 0.00 0.001 0.26 2.05
Newberry Springs 9/4/26 0300 0.00 0.00 0.00 0.00 1.97 0.004 0.30 2.28
Pinon Hills 9/4/26 0300 0.00 0.00 0.00 0.00 0.19 0.000 0.21 1.74
Helendale 9/4/26 0300 0.00 0.00 0.00 0.00 0.00 0.001 0.29 2.06
Lenwood 9/4/26 0300 0.00 0.00 0.00 0.00 0.09 0.002 0.30 2.13
Oak Hills 9/4/26 0300 0.00 0.00 0.00 0.00 0.00 0.001 0.22 1.74
Pipes Wash Canyon 9/4/26 0300 0.00 0.00 0.00 0.00 0.00 0.000 0.23 1.68
Max     0.00 0.00 0.00 0.00 1.97 0.004 0.30 2.28
Avg     0.00 - - - - - - -
Min     0.00 0.00 0.00 0.00 0.00 0.000 0.21 1.68